sensor_id;sensor_type;location;lat;lon;timestamp;temperature;humidity
27759;DHT22;15148;48.972;12.794;2023-04-03T00:02:50;3.10;99.90
27759;DHT22;15148;48.972;12.794;2023-04-03T00:07:52;3.20;99.90
27759;DHT22;15148;48.972;12.794;2023-04-03T00:12:53;3.10;99.90
27759;DHT22;15148;48.972;12.794;2023-04-03T00:17:55;3.10;99.90
27759;DHT22;15148;48.972;12.794;2023-04-03T00:22:57;3.20;99.90
27759;DHT22;15148;48.972;12.794;2023-04-03T00:27:59;3.10;99.90
27759;DHT22;15148;48.972;12.794;2023-04-03T00:33:01;3.10;99.90
27759;DHT22;15148;48.972;12.794;2023-04-03T00:38:03;3.10;99.90
27759;DHT22;15148;48.972;12.794;2023-04-03T00:43:12;3.10;99.90
27759;DHT22;15148;48.972;12.794;2023-04-03T00:48:26;3.00;99.90
27759;DHT22;15148;48.972;12.794;2023-04-03T00:53:59;3.00;99.90
27759;DHT22;15148;48.972;12.794;2023-04-03T00:59:18;3.00;99.90
27759;DHT22;15148;48.972;12.794;2023-04-03T01:04:38;3.00;99.90
27759;DHT22;15148;48.972;12.794;2023-04-03T01:09:41;3.10;99.90
27759;DHT22;15148;48.972;12.794;2023-04-03T01:14:44;3.10;99.90
27759;DHT22;15148;48.972;12.794;2023-04-03T01:25:05;3.10;99.90
27759;DHT22;15148;48.972;12.794;2023-04-03T01:30:08;3.10;99.90
27759;DHT22;15148;48.972;12.794;2023-04-03T01:35:11;3.20;99.90
27759;DHT22;15148;48.972;12.794;2023-04-03T01:40:13;3.10;99.90
27759;DHT22;15148;48.972;12.794;2023-04-03T01:45:15;3.00;99.90
27759;DHT22;15148;48.972;12.794;2023-04-03T01:50:17;3.10;99.90
27759;DHT22;15148;48.972;12.794;2023-04-03T01:55:19;3.10;99.90
27759;DHT22;15148;48.972;12.794;2023-04-03T02:00:21;3.10;99.90
27759;DHT22;15148;48.972;12.794;2023-04-03T02:05:24;3.00;99.90
27759;DHT22;15148;48.972;12.794;2023-04-03T02:10:26;3.00;99.90
27759;DHT22;15148;48.972;12.794;2023-04-03T02:15:28;3.00;99.90
27759;DHT22;15148;48.972;12.794;2023-04-03T02:20:30;3.00;99.90
27759;DHT22;15148;48.972;12.794;2023-04-03T02:25:32;3.10;99.90
27759;DHT22;15148;48.972;12.794;2023-04-03T02:30:34;3.00;99.90
27759;DHT22;15148;48.972;12.794;2023-04-03T02:35:39;3.00;99.90
27759;DHT22;15148;48.972;12.794;2023-04-03T02:40:42;2.90;99.90
27759;DHT22;15148;48.972;12.794;2023-04-03T02:45:44;3.00;99.90
27759;DHT22;15148;48.972;12.794;2023-04-03T02:50:47;3.00;99.90
27759;DHT22;15148;48.972;12.794;2023-04-03T02:55:49;2.90;99.90
27759;DHT22;15148;48.972;12.794;2023-04-03T03:00:51;2.90;99.90
27759;DHT22;15148;48.972;12.794;2023-04-03T03:06:25;3.00;99.90
27759;DHT22;15148;48.972;12.794;2023-04-03T03:11:29;3.00;99.90
27759;DHT22;15148;48.972;12.794;2023-04-03T03:16:31;3.00;99.90
27759;DHT22;15148;48.972;12.794;2023-04-03T03:21:33;2.90;99.90
27759;DHT22;15148;48.972;12.794;2023-04-03T03:26:36;2.90;99.90
27759;DHT22;15148;48.972;12.794;2023-04-03T03:31:38;2.90;99.90
27759;DHT22;15148;48.972;12.794;2023-04-03T03:36:41;2.90;99.90
27759;DHT22;15148;48.972;12.794;2023-04-03T03:41:43;2.90;99.90
27759;DHT22;15148;48.972;12.794;2023-04-03T03:46:45;2.80;99.90
27759;DHT22;15148;48.972;12.794;2023-04-03T03:51:47;2.80;99.90
27759;DHT22;15148;48.972;12.794;2023-04-03T03:56:49;2.90;99.90
27759;DHT22;15148;48.972;12.794;2023-04-03T04:01:51;2.90;99.90
27759;DHT22;15148;48.972;12.794;2023-04-03T04:06:53;2.90;99.90
27759;DHT22;15148;48.972;12.794;2023-04-03T04:11:55;2.90;99.90
27759;DHT22;15148;48.972;12.794;2023-04-03T04:16:57;2.90;99.90
27759;DHT22;15148;48.972;12.794;2023-04-03T04:22:01;2.90;99.90
27759;DHT22;15148;48.972;12.794;2023-04-03T04:27:05;2.80;99.90
27759;DHT22;15148;48.972;12.794;2023-04-03T04:32:09;2.80;99.90
27759;DHT22;15148;48.972;12.794;2023-04-03T04:37:11;2.80;99.90
27759;DHT22;15148;48.972;12.794;2023-04-03T04:42:13;2.80;99.90
27759;DHT22;15148;48.972;12.794;2023-04-03T04:47:19;2.80;99.90
27759;DHT22;15148;48.972;12.794;2023-04-03T04:52:22;2.80;99.90
27759;DHT22;15148;48.972;12.794;2023-04-03T04:57:24;2.80;99.90
27759;DHT22;15148;48.972;12.794;2023-04-03T05:02:26;2.80;99.90
27759;DHT22;15148;48.972;12.794;2023-04-03T05:07:30;2.80;99.90
27759;DHT22;15148;48.972;12.794;2023-04-03T05:12:34;2.90;99.90
27759;DHT22;15148;48.972;12.794;2023-04-03T05:17:38;2.80;99.90
27759;DHT22;15148;48.972;12.794;2023-04-03T05:22:43;2.90;99.90
27759;DHT22;15148;48.972;12.794;2023-04-03T05:27:45;2.90;99.90
27759;DHT22;15148;48.972;12.794;2023-04-03T05:32:47;2.90;99.90
27759;DHT22;15148;48.972;12.794;2023-04-03T05:37:53;2.90;99.90
27759;DHT22;15148;48.972;12.794;2023-04-03T05:42:56;2.90;99.90
27759;DHT22;15148;48.972;12.794;2023-04-03T05:48:00;2.80;99.90
27759;DHT22;15148;48.972;12.794;2023-04-03T05:53:04;2.90;99.90
27759;DHT22;15148;48.972;12.794;2023-04-03T05:58:07;2.90;99.90
27759;DHT22;15148;48.972;12.794;2023-04-03T06:03:12;2.90;99.90
27759;DHT22;15148;48.972;12.794;2023-04-03T06:08:14;3.00;99.90
27759;DHT22;15148;48.972;12.794;2023-04-03T06:13:17;3.00;99.90
27759;DHT22;15148;48.972;12.794;2023-04-03T06:18:18;3.00;99.90
27759;DHT22;15148;48.972;12.794;2023-04-03T06:23:21;3.00;99.90
27759;DHT22;15148;48.972;12.794;2023-04-03T06:28:24;2.90;99.90
27759;DHT22;15148;48.972;12.794;2023-04-03T06:33:28;2.90;99.90
27759;DHT22;15148;48.972;12.794;2023-04-03T06:38:30;2.80;99.90
27759;DHT22;15148;48.972;12.794;2023-04-03T06:43:32;2.70;99.90
27759;DHT22;15148;48.972;12.794;2023-04-03T06:48:35;2.60;99.90
27759;DHT22;15148;48.972;12.794;2023-04-03T06:53:37;2.70;99.90
27759;DHT22;15148;48.972;12.794;2023-04-03T06:58:39;2.70;99.90
27759;DHT22;15148;48.972;12.794;2023-04-03T07:03:42;2.70;99.90
27759;DHT22;15148;48.972;12.794;2023-04-03T07:08:44;2.80;99.90
27759;DHT22;15148;48.972;12.794;2023-04-03T07:13:47;3.00;99.90
27759;DHT22;15148;48.972;12.794;2023-04-03T07:18:48;3.20;99.90
27759;DHT22;15148;48.972;12.794;2023-04-03T07:23:50;3.50;99.90
27759;DHT22;15148;48.972;12.794;2023-04-03T07:28:52;3.70;99.90
27759;DHT22;15148;48.972;12.794;2023-04-03T07:33:54;3.70;99.90
27759;DHT22;15148;48.972;12.794;2023-04-03T07:38:56;3.90;99.90
27759;DHT22;15148;48.972;12.794;2023-04-03T07:43:58;3.80;99.90
27759;DHT22;15148;48.972;12.794;2023-04-03T07:49:00;3.90;99.90
27759;DHT22;15148;48.972;12.794;2023-04-03T07:54:02;4.10;99.90
27759;DHT22;15148;48.972;12.794;2023-04-03T07:59:04;4.20;99.90
27759;DHT22;15148;48.972;12.794;2023-04-03T08:04:06;4.40;99.90
27759;DHT22;15148;48.972;12.794;2023-04-03T08:09:08;4.70;99.90
27759;DHT22;15148;48.972;12.794;2023-04-03T08:14:10;4.50;99.90
27759;DHT22;15148;48.972;12.794;2023-04-03T08:19:17;4.20;99.90
27759;DHT22;15148;48.972;12.794;2023-04-03T08:24:27;3.80;99.90
27759;DHT22;15148;48.972;12.794;2023-04-03T08:29:29;3.70;99.90
27759;DHT22;15148;48.972;12.794;2023-04-03T08:34:32;3.50;99.90
27759;DHT22;15148;48.972;12.794;2023-04-03T08:39:36;3.90;99.90
27759;DHT22;15148;48.972;12.794;2023-04-03T08:49:57;5.10;99.90
27759;DHT22;15148;48.972;12.794;2023-04-03T09:01:16;5.90;99.90
27759;DHT22;15148;48.972;12.794;2023-04-03T09:06:25;6.30;99.90
27759;DHT22;15148;48.972;12.794;2023-04-03T09:21:51;5.80;99.90
27759;DHT22;15148;48.972;12.794;2023-04-03T09:27:01;6.20;99.90
27759;DHT22;15148;48.972;12.794;2023-04-03T09:32:29;6.60;99.90
27759;DHT22;15148;48.972;12.794;2023-04-03T09:37:40;6.00;94.40
27759;DHT22;15148;48.972;12.794;2023-04-03T09:42:43;6.20;99.30
27759;DHT22;15148;48.972;12.794;2023-04-03T09:53:44;6.40;96.20
27759;DHT22;15148;48.972;12.794;2023-04-03T09:59:07;6.20;93.40
27759;DHT22;15148;48.972;12.794;2023-04-03T10:04:15;6.20;92.50
27759;DHT22;15148;48.972;12.794;2023-04-03T10:09:27;6.30;92.30
27759;DHT22;15148;48.972;12.794;2023-04-03T10:14:30;6.60;93.70
27759;DHT22;15148;48.972;12.794;2023-04-03T10:19:42;6.80;93.50
27759;DHT22;15148;48.972;12.794;2023-04-03T10:24:54;6.80;90.30
27759;DHT22;15148;48.972;12.794;2023-04-03T10:30:36;6.20;88.40
27759;DHT22;15148;48.972;12.794;2023-04-03T10:46:09;6.20;92.30
27759;DHT22;15148;48.972;12.794;2023-04-03T10:51:53;6.40;90.40
27759;DHT22;15148;48.972;12.794;2023-04-03T10:56:56;5.30;88.00
27759;DHT22;15148;48.972;12.794;2023-04-03T11:02:32;5.70;92.20
27759;DHT22;15148;48.972;12.794;2023-04-03T11:07:43;5.90;91.80
27759;DHT22;15148;48.972;12.794;2023-04-03T11:12:51;5.80;94.90
27759;DHT22;15148;48.972;12.794;2023-04-03T11:18:06;6.10;93.30
27759;DHT22;15148;48.972;12.794;2023-04-03T11:28:15;5.80;90.70
27759;DHT22;15148;48.972;12.794;2023-04-03T11:38:41;5.90;90.20
27759;DHT22;15148;48.972;12.794;2023-04-03T11:44:22;5.20;92.50
27759;DHT22;15148;48.972;12.794;2023-04-03T11:55:01;4.80;93.40
27759;DHT22;15148;48.972;12.794;2023-04-03T12:05:43;5.30;93.20
27759;DHT22;15148;48.972;12.794;2023-04-03T12:42:45;6.00;92.30
27759;DHT22;15148;48.972;12.794;2023-04-03T12:47:52;6.60;92.80
27759;DHT22;15148;48.972;12.794;2023-04-03T12:53:04;6.20;90.70
27759;DHT22;15148;48.972;12.794;2023-04-03T12:58:21;6.00;92.10
27759;DHT22;15148;48.972;12.794;2023-04-03T13:03:25;6.00;90.90
27759;DHT22;15148;48.972;12.794;2023-04-03T13:08:29;6.20;91.40
27759;DHT22;15148;48.972;12.794;2023-04-03T13:13:32;6.10;90.50
27759;DHT22;15148;48.972;12.794;2023-04-03T13:18:35;5.60;91.80
27759;DHT22;15148;48.972;12.794;2023-04-03T13:23:40;5.70;92.10
27759;DHT22;15148;48.972;12.794;2023-04-03T13:28:44;5.80;91.30
27759;DHT22;15148;48.972;12.794;2023-04-03T13:39:04;5.60;92.80
27759;DHT22;15148;48.972;12.794;2023-04-03T13:49:40;5.80;91.40
27759;DHT22;15148;48.972;12.794;2023-04-03T13:54:46;5.60;88.70
27759;DHT22;15148;48.972;12.794;2023-04-03T13:59:49;5.40;91.30
27759;DHT22;15148;48.972;12.794;2023-04-03T14:04:57;5.10;90.90
27759;DHT22;15148;48.972;12.794;2023-04-03T14:10:01;5.00;91.60
27759;DHT22;15148;48.972;12.794;2023-04-03T14:15:11;5.10;91.50
27759;DHT22;15148;48.972;12.794;2023-04-03T14:20:19;5.20;92.00
27759;DHT22;15148;48.972;12.794;2023-04-03T14:25:22;5.00;92.20
27759;DHT22;15148;48.972;12.794;2023-04-03T14:30:30;4.90;90.70
27759;DHT22;15148;48.972;12.794;2023-04-03T14:35:33;5.20;91.50
27759;DHT22;15148;48.972;12.794;2023-04-03T14:40:35;5.50;91.60
27759;DHT22;15148;48.972;12.794;2023-04-03T14:45:38;5.50;90.90
27759;DHT22;15148;48.972;12.794;2023-04-03T14:50:40;5.20;90.00
27759;DHT22;15148;48.972;12.794;2023-04-03T14:55:55;4.90;91.20
27759;DHT22;15148;48.972;12.794;2023-04-03T15:00:57;4.90;92.10
27759;DHT22;15148;48.972;12.794;2023-04-03T15:05:59;5.10;90.70
27759;DHT22;15148;48.972;12.794;2023-04-03T15:11:00;5.10;90.30
27759;DHT22;15148;48.972;12.794;2023-04-03T15:16:03;4.90;87.80
27759;DHT22;15148;48.972;12.794;2023-04-03T15:21:05;4.80;88.50
27759;DHT22;15148;48.972;12.794;2023-04-03T15:26:07;4.70;91.10
27759;DHT22;15148;48.972;12.794;2023-04-03T15:31:09;4.60;92.30
27759;DHT22;15148;48.972;12.794;2023-04-03T15:36:11;4.70;92.00
27759;DHT22;15148;48.972;12.794;2023-04-03T15:41:17;4.80;92.50
27759;DHT22;15148;48.972;12.794;2023-04-03T15:46:19;4.80;92.20
27759;DHT22;15148;48.972;12.794;2023-04-03T15:51:21;4.80;91.40
27759;DHT22;15148;48.972;12.794;2023-04-03T15:56:23;4.60;91.80
27759;DHT22;15148;48.972;12.794;2023-04-03T16:01:25;4.30;92.10
27759;DHT22;15148;48.972;12.794;2023-04-03T16:06:27;4.10;93.50
27759;DHT22;15148;48.972;12.794;2023-04-03T16:11:30;4.00;92.50
27759;DHT22;15148;48.972;12.794;2023-04-03T16:16:32;3.90;95.20
27759;DHT22;15148;48.972;12.794;2023-04-03T16:21:34;3.90;94.30
27759;DHT22;15148;48.972;12.794;2023-04-03T16:26:36;3.80;94.60
27759;DHT22;15148;48.972;12.794;2023-04-03T16:31:38;3.80;95.80
27759;DHT22;15148;48.972;12.794;2023-04-03T16:36:40;3.80;96.40
27759;DHT22;15148;48.972;12.794;2023-04-03T16:41:42;3.70;95.10
27759;DHT22;15148;48.972;12.794;2023-04-03T16:46:44;3.70;93.40
27759;DHT22;15148;48.972;12.794;2023-04-03T16:51:49;3.60;95.10
27759;DHT22;15148;48.972;12.794;2023-04-03T16:56:51;3.50;96.10
27759;DHT22;15148;48.972;12.794;2023-04-03T17:01:52;3.40;94.90
27759;DHT22;15148;48.972;12.794;2023-04-03T17:06:54;3.20;95.80
27759;DHT22;15148;48.972;12.794;2023-04-03T17:11:56;3.20;96.50
27759;DHT22;15148;48.972;12.794;2023-04-03T17:16:58;3.00;96.50
27759;DHT22;15148;48.972;12.794;2023-04-03T17:22:00;3.00;96.30
27759;DHT22;15148;48.972;12.794;2023-04-03T17:27:03;2.90;98.50
27759;DHT22;15148;48.972;12.794;2023-04-03T17:32:05;2.80;98.30
27759;DHT22;15148;48.972;12.794;2023-04-03T17:37:07;2.80;96.70
27759;DHT22;15148;48.972;12.794;2023-04-03T17:42:09;2.70;96.30
27759;DHT22;15148;48.972;12.794;2023-04-03T17:47:11;2.70;97.00
27759;DHT22;15148;48.972;12.794;2023-04-03T17:52:13;2.60;99.90
27759;DHT22;15148;48.972;12.794;2023-04-03T17:57:15;2.50;97.70
27759;DHT22;15148;48.972;12.794;2023-04-03T18:02:17;2.50;99.10
27759;DHT22;15148;48.972;12.794;2023-04-03T18:07:19;2.40;99.30
27759;DHT22;15148;48.972;12.794;2023-04-03T18:12:21;2.40;99.90
27759;DHT22;15148;48.972;12.794;2023-04-03T18:17:24;2.40;99.90
27759;DHT22;15148;48.972;12.794;2023-04-03T18:22:28;2.40;99.90
27759;DHT22;15148;48.972;12.794;2023-04-03T18:27:30;2.30;99.90
27759;DHT22;15148;48.972;12.794;2023-04-03T18:32:32;2.20;99.90
27759;DHT22;15148;48.972;12.794;2023-04-03T18:37:34;2.00;99.90
27759;DHT22;15148;48.972;12.794;2023-04-03T18:42:39;1.80;99.90
27759;DHT22;15148;48.972;12.794;2023-04-03T18:47:41;1.60;99.90
27759;DHT22;15148;48.972;12.794;2023-04-03T18:52:44;1.40;99.90
27759;DHT22;15148;48.972;12.794;2023-04-03T18:57:47;1.30;99.90
27759;DHT22;15148;48.972;12.794;2023-04-03T19:02:50;1.20;99.90
27759;DHT22;15148;48.972;12.794;2023-04-03T19:07:53;1.10;99.90
27759;DHT22;15148;48.972;12.794;2023-04-03T19:12:56;0.80;99.90
27759;DHT22;15148;48.972;12.794;2023-04-03T19:17:58;0.80;99.90
27759;DHT22;15148;48.972;12.794;2023-04-03T19:22:59;0.80;99.90
27759;DHT22;15148;48.972;12.794;2023-04-03T19:28:01;0.80;99.90
27759;DHT22;15148;48.972;12.794;2023-04-03T19:33:03;0.70;99.90
27759;DHT22;15148;48.972;12.794;2023-04-03T19:38:05;0.60;99.90
27759;DHT22;15148;48.972;12.794;2023-04-03T19:43:07;0.50;99.90
27759;DHT22;15148;48.972;12.794;2023-04-03T19:48:10;0.50;99.90
27759;DHT22;15148;48.972;12.794;2023-04-03T19:53:12;0.50;99.90
27759;DHT22;15148;48.972;12.794;2023-04-03T19:58:19;0.60;99.90
27759;DHT22;15148;48.972;12.794;2023-04-03T20:03:21;0.50;99.90
27759;DHT22;15148;48.972;12.794;2023-04-03T20:08:23;0.60;99.90
27759;DHT22;15148;48.972;12.794;2023-04-03T20:13:26;0.60;99.90
27759;DHT22;15148;48.972;12.794;2023-04-03T20:18:28;0.80;99.90
27759;DHT22;15148;48.972;12.794;2023-04-03T20:23:30;0.70;99.90
27759;DHT22;15148;48.972;12.794;2023-04-03T20:28:34;0.90;99.90
27759;DHT22;15148;48.972;12.794;2023-04-03T20:33:36;0.80;99.90
27759;DHT22;15148;48.972;12.794;2023-04-03T20:38:38;0.80;99.90
27759;DHT22;15148;48.972;12.794;2023-04-03T20:43:41;0.90;99.90
27759;DHT22;15148;48.972;12.794;2023-04-03T20:48:43;1.00;99.90
27759;DHT22;15148;48.972;12.794;2023-04-03T20:53:46;1.00;99.90
27759;DHT22;15148;48.972;12.794;2023-04-03T20:58:48;1.10;99.90
27759;DHT22;15148;48.972;12.794;2023-04-03T21:03:54;1.10;99.90
27759;DHT22;15148;48.972;12.794;2023-04-03T21:20:18;1.20;99.90
27759;DHT22;15148;48.972;12.794;2023-04-03T21:25:19;1.30;99.90
27759;DHT22;15148;48.972;12.794;2023-04-03T21:30:21;1.20;99.90
27759;DHT22;15148;48.972;12.794;2023-04-03T21:35:23;1.30;99.90
27759;DHT22;15148;48.972;12.794;2023-04-03T21:40:25;1.40;99.90
27759;DHT22;15148;48.972;12.794;2023-04-03T21:45:27;1.40;99.90
27759;DHT22;15148;48.972;12.794;2023-04-03T21:50:30;1.50;99.90
27759;DHT22;15148;48.972;12.794;2023-04-03T21:55:33;1.50;99.90
27759;DHT22;15148;48.972;12.794;2023-04-03T22:00:35;1.60;99.90
27759;DHT22;15148;48.972;12.794;2023-04-03T22:05:36;1.60;99.90
27759;DHT22;15148;48.972;12.794;2023-04-03T22:10:38;1.60;99.90
27759;DHT22;15148;48.972;12.794;2023-04-03T22:15:45;1.60;99.90
27759;DHT22;15148;48.972;12.794;2023-04-03T22:20:48;1.50;99.90
27759;DHT22;15148;48.972;12.794;2023-04-03T22:26:00;1.30;99.90
27759;DHT22;15148;48.972;12.794;2023-04-03T22:31:03;1.10;99.90
27759;DHT22;15148;48.972;12.794;2023-04-03T22:36:09;0.90;99.90
27759;DHT22;15148;48.972;12.794;2023-04-03T22:41:12;0.80;99.90
27759;DHT22;15148;48.972;12.794;2023-04-03T22:46:14;0.60;99.90
27759;DHT22;15148;48.972;12.794;2023-04-03T22:51:15;0.50;99.90
27759;DHT22;15148;48.972;12.794;2023-04-03T22:56:17;0.40;99.90
27759;DHT22;15148;48.972;12.794;2023-04-03T23:01:20;0.30;99.90
27759;DHT22;15148;48.972;12.794;2023-04-03T23:06:24;0.20;99.90
27759;DHT22;15148;48.972;12.794;2023-04-03T23:11:27;0.10;99.90
27759;DHT22;15148;48.972;12.794;2023-04-03T23:16:29;0.10;99.90
27759;DHT22;15148;48.972;12.794;2023-04-03T23:21:31;0.10;99.90
27759;DHT22;15148;48.972;12.794;2023-04-03T23:26:32;0.00;99.90
27759;DHT22;15148;48.972;12.794;2023-04-03T23:31:34;0.00;99.90
27759;DHT22;15148;48.972;12.794;2023-04-03T23:36:37;0.00;99.90
27759;DHT22;15148;48.972;12.794;2023-04-03T23:41:39;-0.10;99.90
27759;DHT22;15148;48.972;12.794;2023-04-03T23:46:40;-0.20;99.90
27759;DHT22;15148;48.972;12.794;2023-04-03T23:51:42;-0.20;99.90
27759;DHT22;15148;48.972;12.794;2023-04-03T23:56:44;-0.20;99.90
